Time;durP1;ratioP1;P1;durP2;ratioP2;P2;SDS_P1;SDS_P2;PMS_P1;PMS_P2;Temp;Humidity;BMP_temperature;BMP_pressure;BME280_temperature;BME280_humidity;BME280_pressure;Samples;Min_cycle;Max_cycle;Signal;HPM_P1;HPM_P2
2023/09/24 00:01:17;;;;;;;1999.90;999.90;;;11.50;99.90;;;;;;4986572;28;20050;-67
2023/09/24 00:03:43;;;;;;;1999.90;999.90;;;11.40;99.90;;;;;;4999809;28;20043;-68
2023/09/24 00:06:10;;;;;;;1999.90;999.90;;;11.40;99.90;;;;;;4985138;28;20050;-68
2023/09/24 00:08:36;;;;;;;1999.90;999.90;;;11.30;99.90;;;;;;4980228;28;20070;-68
2023/09/24 00:11:02;;;;;;;1999.90;999.90;;;11.20;99.90;;;;;;4978635;28;20485;-68
2023/09/24 00:13:28;;;;;;;1999.90;999.90;;;11.20;99.90;;;;;;4982257;28;20050;-67
2023/09/24 00:15:54;;;;;;;1999.90;999.90;;;11.10;99.90;;;;;;4986550;28;20402;-68
2023/09/24 00:18:20;;;;;;;1999.90;999.90;;;11.10;99.90;;;;;;4976536;28;20046;-68
2023/09/24 00:20:46;;;;;;;1999.90;999.90;;;11.00;99.90;;;;;;4977524;28;20039;-68
2023/09/24 00:23:14;;;;;;;1999.90;999.90;;;11.00;99.90;;;;;;4986740;28;20039;-67
2023/09/24 00:25:40;;;;;;;1999.90;999.90;;;11.00;99.90;;;;;;4984753;28;20042;-68
2023/09/24 00:28:07;;;;;;;1999.90;999.90;;;10.90;99.90;;;;;;4985377;28;20046;-68
2023/09/24 00:30:34;;;;;;;1999.90;999.90;;;10.80;99.90;;;;;;4984857;28;20491;-67
2023/09/24 00:33:00;;;;;;;1999.90;999.90;;;10.80;99.90;;;;;;4980677;28;20042;-67
2023/09/24 00:35:26;;;;;;;1999.90;999.90;;;10.70;99.90;;;;;;4986159;28;20092;-68
2023/09/24 00:37:52;;;;;;;1999.90;999.90;;;10.60;99.90;;;;;;4976243;28;20068;-67
2023/09/24 00:40:18;;;;;;;1999.90;999.90;;;10.60;99.90;;;;;;4975279;28;20027;-68
2023/09/24 00:42:44;;;;;;;1999.90;999.90;;;10.50;99.90;;;;;;4980688;28;20050;-67
2023/09/24 00:45:11;;;;;;;1999.90;999.90;;;10.50;99.90;;;;;;4964668;28;20074;-67
2023/09/24 00:47:43;;;;;;;1999.90;999.90;;;10.40;99.90;;;;;;4965423;28;20050;-68
2023/09/24 00:50:10;;;;;;;1999.90;999.90;;;10.40;99.90;;;;;;4973400;28;20121;-68
2023/09/24 00:52:36;;;;;;;1999.90;999.90;;;10.30;99.90;;;;;;4986285;28;20843;-68
2023/09/24 00:55:06;;;;;;;1999.90;999.90;;;10.30;99.90;;;;;;4977904;28;20143;-68
2023/09/24 00:57:33;;;;;;;1999.90;999.90;;;10.30;99.90;;;;;;5007117;28;20096;-68
2023/09/24 01:00:03;;;;;;;1999.90;999.90;;;10.20;99.90;;;;;;4974027;28;20039;-67
2023/09/24 01:02:32;;;;;;;1999.90;999.90;;;10.20;99.90;;;;;;4980325;28;20038;-68
2023/09/24 01:05:00;;;;;;;1999.90;999.90;;;10.20;99.90;;;;;;5008288;28;20471;-68
2023/09/24 01:07:26;;;;;;;1999.90;999.90;;;10.10;99.90;;;;;;4981438;28;20046;-67
2023/09/24 01:09:53;;;;;;;1999.90;999.90;;;10.10;99.90;;;;;;4976505;28;20042;-68
2023/09/24 01:12:23;;;;;;;1999.90;999.90;;;10.00;99.90;;;;;;4976602;28;20139;-67
2023/09/24 01:14:49;;;;;;;1999.90;999.90;;;10.00;99.90;;;;;;4980819;28;20461;-68
2023/09/24 01:17:15;;;;;;;1999.90;999.90;;;9.90;99.90;;;;;;4980720;28;20058;-67
2023/09/24 01:19:41;;;;;;;1999.90;999.90;;;9.90;99.90;;;;;;4983428;28;20050;-68
2023/09/24 01:22:07;;;;;;;1999.90;999.90;;;9.90;99.90;;;;;;4987797;28;20510;-68
2023/09/24 01:24:32;;;;;;;1999.90;999.90;;;9.90;99.90;;;;;;4979562;28;20559;-68
2023/09/24 01:26:58;;;;;;;1999.90;999.90;;;9.90;99.90;;;;;;4973638;28;20139;-67
2023/09/24 01:29:24;;;;;;;1999.90;999.90;;;9.90;99.90;;;;;;4981513;28;20468;-68
2023/09/24 01:31:51;;;;;;;1999.90;999.90;;;9.80;99.90;;;;;;4985044;28;20046;-67
2023/09/24 01:34:18;;;;;;;1999.90;999.90;;;9.80;99.90;;;;;;4984196;28;20408;-68
2023/09/24 01:36:44;;;;;;;1999.90;999.90;;;9.80;99.90;;;;;;4978285;28;20050;-67
2023/09/24 01:39:09;;;;;;;1999.90;999.90;;;9.80;99.90;;;;;;4977566;28;20049;-68
2023/09/24 01:41:35;;;;;;;1999.90;999.90;;;9.90;99.90;;;;;;4978126;28;20054;-67
2023/09/24 01:44:01;;;;;;;1999.90;999.90;;;9.90;99.90;;;;;;4977873;28;20100;-67
2023/09/24 01:46:27;;;;;;;1999.90;999.90;;;10.00;99.90;;;;;;4971131;28;20046;-68
2023/09/24 01:48:54;;;;;;;1999.90;999.90;;;10.00;99.90;;;;;;4978700;28;20045;-68
2023/09/24 01:51:20;;;;;;;1999.90;999.90;;;10.00;99.90;;;;;;4977498;28;20078;-68
2023/09/24 01:53:47;;;;;;;1999.90;999.90;;;10.00;99.90;;;;;;4981761;28;20074;-67
2023/09/24 01:56:14;;;;;;;1999.90;999.90;;;10.10;99.90;;;;;;4972879;28;20050;-67
2023/09/24 01:58:39;;;;;;;1999.90;999.90;;;10.10;99.90;;;;;;4978430;28;20418;-67
2023/09/24 02:01:06;;;;;;;1999.90;999.90;;;10.10;99.90;;;;;;4979653;28;20045;-67
2023/09/24 02:03:32;;;;;;;1999.90;999.90;;;10.10;99.90;;;;;;4975142;28;20402;-68
2023/09/24 02:05:58;;;;;;;1999.90;999.90;;;10.20;99.90;;;;;;4979241;28;20051;-68
2023/09/24 02:08:23;;;;;;;1999.90;999.90;;;10.30;99.90;;;;;;4982068;28;20046;-68
2023/09/24 02:10:49;;;;;;;1999.90;999.90;;;10.30;99.90;;;;;;4985454;28;20092;-67
2023/09/24 02:13:15;;;;;;;1999.90;999.90;;;10.30;99.90;;;;;;4982042;28;20054;-68
2023/09/24 02:15:43;;;;;;;1999.90;999.90;;;10.30;99.90;;;;;;4984878;28;20042;-67
2023/09/24 02:18:09;;;;;;;1999.90;999.90;;;10.30;99.90;;;;;;4980990;28;20050;-67
2023/09/24 02:20:38;;;;;;;1999.90;999.90;;;10.30;99.90;;;;;;4985035;28;20031;-67
2023/09/24 02:23:04;;;;;;;1999.90;999.90;;;10.30;99.90;;;;;;4971577;28;20050;-67
2023/09/24 02:25:35;;;;;;;1999.90;999.90;;;10.40;99.90;;;;;;4963767;28;20038;-67
2023/09/24 02:28:01;;;;;;;1999.90;999.90;;;10.40;99.90;;;;;;4984365;28;20511;-67
2023/09/24 02:30:29;;;;;;;1999.90;999.90;;;10.40;99.90;;;;;;4974589;28;20039;-67
2023/09/24 02:32:55;;;;;;;1999.90;999.90;;;10.40;99.90;;;;;;4984121;28;20444;-68
2023/09/24 02:35:21;;;;;;;1999.90;999.90;;;10.50;99.90;;;;;;4979570;28;20409;-67
2023/09/24 02:37:48;;;;;;;1999.90;999.90;;;10.50;99.90;;;;;;4980233;28;20742;-67
2023/09/24 02:40:21;;;;;;;1999.90;999.90;;;10.50;99.90;;;;;;4975847;28;20043;-67
2023/09/24 02:42:48;;;;;;;1999.90;999.90;;;10.50;99.90;;;;;;4976919;28;20160;-67
2023/09/24 02:45:15;;;;;;;1999.90;999.90;;;10.50;99.90;;;;;;4973712;28;20035;-67
2023/09/24 02:47:42;;;;;;;1999.90;999.90;;;10.50;99.90;;;;;;5005276;28;20387;-68
2023/09/24 02:50:08;;;;;;;1999.90;999.90;;;10.40;99.90;;;;;;4980462;28;20185;-67
2023/09/24 02:52:35;;;;;;;1999.90;999.90;;;10.40;99.90;;;;;;4980711;28;20126;-67
2023/09/24 02:55:01;;;;;;;1999.90;999.90;;;10.30;99.90;;;;;;4971788;28;20529;-67
2023/09/24 02:57:27;;;;;;;1999.90;999.90;;;10.30;99.90;;;;;;4989934;28;20047;-67
2023/09/24 02:59:53;;;;;;;1999.90;999.90;;;10.30;99.90;;;;;;4983806;28;20050;-67
2023/09/24 03:02:18;;;;;;;1999.90;999.90;;;10.30;99.90;;;;;;4985316;28;20475;-68
2023/09/24 03:04:44;;;;;;;1999.90;999.90;;;10.30;99.90;;;;;;4983120;28;20042;-67
2023/09/24 03:07:10;;;;;;;1999.90;999.90;;;10.30;99.90;;;;;;4978312;28;20128;-67
2023/09/24 03:09:36;;;;;;;1999.90;999.90;;;10.40;99.90;;;;;;4989345;28;20039;-67
2023/09/24 03:12:01;;;;;;;1999.90;999.90;;;10.40;99.90;;;;;;4962528;28;20111;-68
2023/09/24 03:14:27;;;;;;;1999.90;999.90;;;10.50;99.90;;;;;;4985533;28;20095;-67
2023/09/24 03:16:53;;;;;;;1999.90;999.90;;;10.60;99.90;;;;;;4985159;28;20078;-68
2023/09/24 03:19:19;;;;;;;1999.90;999.90;;;10.70;99.90;;;;;;4985633;28;20034;-67
2023/09/24 03:21:44;;;;;;;1999.90;999.90;;;10.70;99.90;;;;;;5009929;28;20166;-68
2023/09/24 03:24:11;;;;;;;1999.90;999.90;;;10.80;99.90;;;;;;4996741;28;20081;-67
2023/09/24 03:26:37;;;;;;;1999.90;999.90;;;10.70;99.90;;;;;;4971958;28;20127;-67
2023/09/24 03:29:03;;;;;;;1999.90;999.90;;;10.70;99.90;;;;;;4983686;28;20119;-68
2023/09/24 03:31:29;;;;;;;1999.90;999.90;;;10.70;99.90;;;;;;4982855;28;20034;-68
2023/09/24 03:33:54;;;;;;;1999.90;999.90;;;10.70;99.90;;;;;;5015885;28;20506;-68
2023/09/24 03:36:20;;;;;;;1999.90;999.90;;;10.70;99.90;;;;;;4986847;28;20099;-67
2023/09/24 03:38:46;;;;;;;1999.90;999.90;;;10.70;99.90;;;;;;4996137;28;20047;-68
2023/09/24 03:41:12;;;;;;;1999.90;999.90;;;10.70;99.90;;;;;;4981297;28;20065;-68
2023/09/24 03:43:37;;;;;;;1999.90;999.90;;;10.60;99.90;;;;;;4981371;28;20073;-68
2023/09/24 03:46:03;;;;;;;1999.90;999.90;;;10.70;99.90;;;;;;4975350;28;20410;-67
2023/09/24 03:48:29;;;;;;;1999.90;999.90;;;10.70;99.90;;;;;;4981722;28;20039;-67
2023/09/24 03:50:54;;;;;;;1999.90;999.90;;;10.60;99.90;;;;;;4979226;28;20452;-67
2023/09/24 03:53:20;;;;;;;1999.90;999.90;;;10.70;99.90;;;;;;4980577;28;20054;-68
2023/09/24 03:55:47;;;;;;;1999.90;999.90;;;10.70;99.90;;;;;;4981537;28;20125;-68
2023/09/24 03:58:14;;;;;;;1999.90;999.90;;;10.60;99.90;;;;;;4979570;28;20046;-67
2023/09/24 04:00:39;;;;;;;1999.90;999.90;;;10.60;99.90;;;;;;4976115;28;20061;-67
2023/09/24 04:03:05;;;;;;;1999.90;999.90;;;10.60;99.90;;;;;;4975299;28;20046;-68
2023/09/24 04:05:33;;;;;;;1999.90;999.90;;;10.50;99.90;;;;;;4984756;28;20050;-67
2023/09/24 04:08:01;;;;;;;1999.90;999.90;;;10.50;99.90;;;;;;4976988;28;20035;-67
2023/09/24 04:10:28;;;;;;;1999.90;999.90;;;10.50;99.90;;;;;;4981859;28;20049;-67
2023/09/24 04:12:55;;;;;;;1999.90;999.90;;;10.40;99.90;;;;;;4980662;28;20572;-67
2023/09/24 04:15:27;;;;;;;1999.90;999.90;;;10.40;99.90;;;;;;4983850;28;20034;-67
2023/09/24 04:17:53;;;;;;;1999.90;999.90;;;10.40;99.90;;;;;;4974221;28;20041;-67
2023/09/24 04:20:20;;;;;;;1999.90;999.90;;;10.40;99.90;;;;;;4975573;28;20421;-67
2023/09/24 04:22:46;;;;;;;1999.90;999.90;;;10.40;99.90;;;;;;4975997;28;20046;-67
2023/09/24 04:25:15;;;;;;;1999.90;999.90;;;10.30;99.90;;;;;;4979708;28;20054;-67
2023/09/24 04:27:44;;;;;;;1999.90;999.90;;;10.30;99.90;;;;;;4968925;28;20193;-67
2023/09/24 04:30:15;;;;;;;1999.90;999.90;;;10.30;99.90;;;;;;4981755;28;20111;-68
2023/09/24 04:32:41;;;;;;;1999.90;999.90;;;10.30;99.90;;;;;;4981785;28;20030;-68
2023/09/24 04:35:08;;;;;;;1999.90;999.90;;;10.20;99.90;;;;;;4981798;28;20046;-67
2023/09/24 04:37:35;;;;;;;1999.90;999.90;;;10.20;99.90;;;;;;4986159;28;20054;-67
2023/09/24 04:40:01;;;;;;;1999.90;999.90;;;10.20;99.90;;;;;;4977769;28;20035;-67
2023/09/24 04:42:26;;;;;;;1999.90;999.90;;;10.20;99.90;;;;;;4982897;28;20483;-67
2023/09/24 04:44:52;;;;;;;1999.90;999.90;;;10.10;99.90;;;;;;4979701;28;20425;-68
2023/09/24 04:47:18;;;;;;;1999.90;999.90;;;10.10;99.90;;;;;;4985350;28;20138;-68
2023/09/24 04:49:43;;;;;;;1999.90;999.90;;;10.10;99.90;;;;;;4977292;28;20070;-68
2023/09/24 04:52:09;;;;;;;1999.90;999.90;;;10.10;99.90;;;;;;4978389;28;20046;-67
2023/09/24 04:54:34;;;;;;;1999.90;999.90;;;10.00;99.90;;;;;;4996016;28;20494;-68
2023/09/24 04:57:00;;;;;;;1999.90;999.90;;;10.00;99.90;;;;;;4982660;28;20103;-68
2023/09/24 04:59:26;;;;;;;1999.90;999.90;;;10.00;99.90;;;;;;4985371;28;20046;-68
2023/09/24 05:01:51;;;;;;;1999.90;999.90;;;10.00;99.90;;;;;;4974635;28;20401;-67
2023/09/24 05:04:18;;;;;;;1999.90;999.90;;;10.00;99.90;;;;;;4973876;28;20042;-67
2023/09/24 05:06:44;;;;;;;1999.90;999.90;;;9.90;99.90;;;;;;4971527;28;20624;-67
2023/09/24 05:09:10;;;;;;;1999.90;999.90;;;9.90;99.90;;;;;;4984697;28;20494;-67
2023/09/24 05:11:35;;;;;;;1999.90;999.90;;;9.90;99.90;;;;;;4982002;28;20413;-68
2023/09/24 05:14:01;;;;;;;1999.90;999.90;;;9.90;99.90;;;;;;4981152;28;20046;-67
2023/09/24 05:16:26;;;;;;;1999.90;999.90;;;9.80;99.90;;;;;;4982105;28;20527;-68
2023/09/24 05:18:52;;;;;;;1999.90;999.90;;;9.80;99.90;;;;;;4986734;28;20040;-67
2023/09/24 05:21:18;;;;;;;1999.90;999.90;;;9.70;99.90;;;;;;4978141;28;20066;-67
2023/09/24 05:23:45;;;;;;;1999.90;999.90;;;9.70;99.90;;;;;;4984082;28;20050;-67
2023/09/24 05:26:13;;;;;;;1999.90;999.90;;;9.70;99.90;;;;;;4983189;28;20046;-67
2023/09/24 05:28:39;;;;;;;1999.90;999.90;;;9.70;99.90;;;;;;4974053;28;20039;-68
2023/09/24 05:31:05;;;;;;;1999.90;999.90;;;9.70;99.90;;;;;;4985435;28;20050;-67
2023/09/24 05:33:31;;;;;;;1999.90;999.90;;;9.70;99.90;;;;;;4966004;28;20038;-68
2023/09/24 05:35:56;;;;;;;1999.90;999.90;;;9.70;99.90;;;;;;4983197;28;20107;-67
2023/09/24 05:38:22;;;;;;;1999.90;999.90;;;9.70;99.90;;;;;;5009147;28;20755;-68
2023/09/24 05:40:48;;;;;;;1999.90;999.90;;;9.70;99.90;;;;;;5008040;28;20142;-68
2023/09/24 05:43:14;;;;;;;1999.90;999.90;;;9.70;99.90;;;;;;4976044;28;20125;-69
2023/09/24 05:45:47;;;;;;;1999.90;999.90;;;9.70;99.90;;;;;;4978741;28;20042;-67
2023/09/24 05:48:15;;;;;;;1999.90;999.90;;;9.70;99.90;;;;;;4977518;28;20045;-67
2023/09/24 05:50:41;;;;;;;1999.90;999.90;;;9.80;99.90;;;;;;4972898;28;20046;-67
2023/09/24 05:53:08;;;;;;;1999.90;999.90;;;9.80;99.90;;;;;;4978800;28;20411;-67
2023/09/24 05:55:34;;;;;;;1999.90;999.90;;;9.80;99.90;;;;;;4975785;28;20134;-67
2023/09/24 05:57:59;;;;;;;1999.90;999.90;;;9.90;99.90;;;;;;4982023;28;20045;-68
2023/09/24 06:00:28;;;;;;;1999.90;999.90;;;9.90;99.90;;;;;;4982876;28;20487;-67
2023/09/24 06:02:54;;;;;;;1999.90;999.90;;;9.90;99.90;;;;;;4981029;28;20053;-67
2023/09/24 06:05:19;;;;;;;1999.90;999.90;;;10.00;99.90;;;;;;4973778;28;20474;-68
2023/09/24 06:07:45;;;;;;;1999.90;999.90;;;10.00;99.90;;;;;;5042007;28;20055;-67
2023/09/24 06:10:11;;;;;;;1999.90;999.90;;;10.00;99.90;;;;;;4974110;28;20184;-68
2023/09/24 06:12:36;;;;;;;1999.90;999.90;;;10.10;99.90;;;;;;4979029;28;20034;-67
2023/09/24 06:15:03;;;;;;;1999.90;999.90;;;10.10;99.90;;;;;;4976212;28;20077;-68
2023/09/24 06:17:29;;;;;;;1999.90;999.90;;;10.10;99.90;;;;;;4980140;28;20046;-68
2023/09/24 06:19:55;;;;;;;1999.90;999.90;;;10.20;99.90;;;;;;4976733;28;20477;-68
2023/09/24 06:22:25;;;;;;;1999.90;999.90;;;10.20;99.90;;;;;;4993041;28;20098;-68
2023/09/24 06:24:51;;;;;;;1999.90;999.90;;;10.20;99.90;;;;;;4980005;28;20398;-68
2023/09/24 06:27:17;;;;;;;1999.90;999.90;;;10.30;99.90;;;;;;4978334;28;20473;-68
2023/09/24 06:29:43;;;;;;;1999.90;999.90;;;10.30;99.90;;;;;;4981510;28;20046;-68
2023/09/24 06:32:08;;;;;;;1999.90;999.90;;;10.40;99.90;;;;;;4979144;28;20051;-68
2023/09/24 06:34:36;;;;;;;1999.90;999.90;;;10.40;99.90;;;;;;4981430;28;20517;-68
2023/09/24 06:37:02;;;;;;;1999.90;999.90;;;10.50;99.90;;;;;;4981805;28;20042;-68
2023/09/24 06:39:29;;;;;;;1999.90;999.90;;;10.60;99.90;;;;;;4974378;28;20049;-68
2023/09/24 06:41:55;;;;;;;1999.90;999.90;;;10.60;99.90;;;;;;4971026;28;20539;-68
2023/09/24 06:44:23;;;;;;;1999.90;999.90;;;10.70;99.90;;;;;;4972500;28;20070;-68
2023/09/24 06:46:51;;;;;;;1999.90;999.90;;;10.80;99.90;;;;;;4973352;28;20384;-68
2023/09/24 06:49:17;;;;;;;1999.90;999.90;;;10.90;99.90;;;;;;4973257;28;20046;-68
2023/09/24 06:51:43;;;;;;;1999.90;999.90;;;11.00;99.90;;;;;;4983459;28;20045;-68
2023/09/24 06:54:08;;;;;;;1999.90;999.90;;;11.00;99.90;;;;;;4976303;28;20126;-68
2023/09/24 06:56:34;;;;;;;1999.90;999.90;;;11.10;99.90;;;;;;4976285;28;20604;-68
2023/09/24 06:58:59;;;;;;;1999.90;999.90;;;11.10;99.90;;;;;;4995846;28;20518;-68
2023/09/24 07:01:25;;;;;;;1999.90;999.90;;;11.20;99.90;;;;;;4996741;28;20521;-68
2023/09/24 07:03:51;;;;;;;1999.90;999.90;;;11.30;99.90;;;;;;4974663;28;20115;-68
2023/09/24 07:06:17;;;;;;;1999.90;999.90;;;11.30;99.90;;;;;;5004320;28;20044;-68
2023/09/24 07:08:43;;;;;;;1999.90;999.90;;;11.40;99.90;;;;;;5019962;28;20383;-68
2023/09/24 07:11:38;;;;;;;1999.90;999.90;;;11.50;99.90;;;;;;4988555;28;20035;-68
2023/09/24 07:14:05;;;;;;;1999.90;999.90;;;11.70;99.90;;;;;;4987338;28;20407;-68
2023/09/24 07:16:31;;;;;;;1999.90;999.90;;;11.80;99.90;;;;;;4972407;28;20046;-69
2023/09/24 07:18:58;;;;;;;1999.90;999.90;;;11.90;99.90;;;;;;4991115;28;20050;-68
2023/09/24 07:21:26;;;;;;;1999.90;999.90;;;11.90;99.90;;;;;;4971525;28;20578;-67
2023/09/24 07:23:54;;;;;;;1999.90;999.90;;;11.90;99.90;;;;;;5007257;28;20508;-67
2023/09/24 07:26:20;;;;;;;1999.90;999.90;;;12.00;99.90;;;;;;4978808;28;20053;-68
2023/09/24 07:28:46;;;;;;;1999.90;999.90;;;12.10;99.90;;;;;;4975365;28;20034;-67
2023/09/24 07:31:19;;;;;;;1999.90;999.90;;;12.10;99.90;;;;;;4971137;28;20089;-67
2023/09/24 07:33:45;;;;;;;1999.90;999.90;;;12.10;99.90;;;;;;4975755;28;20406;-67
2023/09/24 07:36:12;;;;;;;1999.90;999.90;;;12.20;99.90;;;;;;4981154;28;20077;-68
2023/09/24 07:38:40;;;;;;;1999.90;999.90;;;12.30;99.90;;;;;;4998975;28;20051;-68
2023/09/24 07:41:07;;;;;;;1999.90;999.90;;;12.30;99.90;;;;;;4974842;28;20461;-68
2023/09/24 07:43:37;;;;;;;1999.90;999.90;;;12.30;99.90;;;;;;4989973;28;20079;-68
2023/09/24 07:46:04;;;;;;;1999.90;999.90;;;12.40;99.90;;;;;;4985448;28;20459;-67
2023/09/24 07:48:30;;;;;;;1999.90;999.90;;;12.50;99.90;;;;;;4984511;28;20486;-67
2023/09/24 07:50:56;;;;;;;1999.90;999.90;;;12.60;99.90;;;;;;4972134;28;20045;-67
2023/09/24 07:53:25;;;;;;;1999.90;999.90;;;12.70;99.90;;;;;;4973239;28;20034;-67
2023/09/24 07:55:57;;;;;;;1999.90;999.90;;;12.80;99.90;;;;;;4974062;28;20057;-67
2023/09/24 07:58:24;;;;;;;1999.90;999.90;;;12.90;99.90;;;;;;4978211;28;20095;-68
2023/09/24 08:00:50;;;;;;;1999.90;999.90;;;13.00;99.90;;;;;;4974755;28;20049;-68
2023/09/24 08:03:16;;;;;;;1999.90;999.90;;;13.10;99.90;;;;;;4955570;28;20043;-67
2023/09/24 08:05:42;;;;;;;1999.90;999.90;;;13.20;99.90;;;;;;4975995;28;20040;-67
2023/09/24 08:08:08;;;;;;;1999.90;999.90;;;13.30;99.90;;;;;;4959271;28;20039;-67
2023/09/24 08:10:33;;;;;;;1999.90;999.90;;;13.40;99.90;;;;;;4973598;28;20035;-68
2023/09/24 08:12:59;;;;;;;1999.90;999.90;;;13.50;99.90;;;;;;4968784;28;20034;-67
2023/09/24 08:15:24;;;;;;;1999.90;999.90;;;13.50;99.90;;;;;;4997589;28;20050;-67
2023/09/24 08:17:51;;;;;;;1999.90;999.90;;;13.70;99.90;;;;;;4978674;28;20099;-68
2023/09/24 08:20:17;;;;;;;1999.90;999.90;;;13.70;99.90;;;;;;4976007;28;20585;-68
2023/09/24 08:22:42;;;;;;;1999.90;999.90;;;13.90;99.90;;;;;;4974424;28;20046;-67
2023/09/24 08:25:08;;;;;;;1999.90;999.90;;;14.00;99.90;;;;;;4966980;28;20052;-67
2023/09/24 08:27:34;;;;;;;1999.90;999.90;;;14.10;99.90;;;;;;4993222;28;20038;-69
2023/09/24 08:30:00;;;;;;;1999.90;999.90;;;14.30;99.90;;;;;;4963946;28;20107;-67
2023/09/24 08:32:26;;;;;;;1999.90;999.90;;;14.40;99.90;;;;;;4959808;28;20707;-67
2023/09/24 08:34:51;;;;;;;1999.90;999.90;;;14.60;99.90;;;;;;4978313;28;20049;-67
2023/09/24 08:37:17;;;;;;;1999.90;999.90;;;14.70;99.90;;;;;;4978453;28;20391;-68
2023/09/24 08:39:42;;;;;;;1999.90;999.90;;;14.90;99.90;;;;;;4976904;28;20053;-67
2023/09/24 08:42:10;;;;;;;1999.90;999.90;;;15.20;99.90;;;;;;4976545;28;20124;-67
2023/09/24 08:44:39;;;;;;;1999.90;999.90;;;15.80;99.90;;;;;;4975224;28;20042;-67
2023/09/24 08:47:06;;;;;;;1999.90;999.90;;;16.40;99.90;;;;;;4963388;28;20074;-68
2023/09/24 08:49:32;;;;;;;1999.90;999.90;;;16.90;99.90;;;;;;4976541;28;20066;-68
2023/09/24 08:52:00;;;;;;;1999.90;999.90;;;17.40;99.90;;;;;;4981981;28;20398;-67
2023/09/24 08:54:27;;;;;;;1999.90;999.90;;;17.60;99.90;;;;;;4982409;28;20046;-67
2023/09/24 08:56:53;;;;;;;1999.90;999.90;;;17.90;99.90;;;;;;4975546;28;20070;-67
2023/09/24 08:59:19;;;;;;;1999.90;999.90;;;18.00;99.90;;;;;;4970621;28;20101;-68
2023/09/24 09:01:54;;;;;;;1999.90;999.90;;;18.20;99.90;;;;;;4972867;28;20083;-67
2023/09/24 09:04:20;;;;;;;1999.90;999.90;;;18.40;99.90;;;;;;4984970;28;20398;-67
2023/09/24 09:06:46;;;;;;;1999.90;999.90;;;18.60;99.90;;;;;;4968592;28;20070;-67
2023/09/24 09:09:26;;;;;;;1999.90;999.90;;;18.70;99.90;;;;;;4983168;28;20189;-67
2023/09/24 09:11:52;;;;;;;1999.90;999.90;;;18.80;99.90;;;;;;4980932;28;20390;-67
2023/09/24 09:14:34;;;;;;;1999.90;999.90;;;19.00;99.90;;;;;;5010152;28;20038;-67
2023/09/24 09:16:59;;;;;;;1999.90;999.90;;;19.10;99.90;;;;;;4981727;28;20038;-67
2023/09/24 09:19:27;;;;;;;1999.90;999.90;;;19.20;99.90;;;;;;4976762;28;20039;-68
2023/09/24 09:21:53;;;;;;;1999.90;999.90;;;19.20;99.90;;;;;;4986766;28;20478;-67
2023/09/24 09:24:25;;;;;;;1999.90;999.90;;;19.20;99.90;;;;;;4986818;28;20045;-67
2023/09/24 09:26:57;;;;;;;1999.90;999.90;;;19.20;99.90;;;;;;4980561;28;20436;-67
2023/09/24 09:29:25;;;;;;;1999.90;999.90;;;19.20;99.90;;;;;;4993809;28;20504;-67
2023/09/24 09:31:51;;;;;;;1999.90;999.90;;;19.00;99.90;;;;;;4982149;28;20588;-67
2023/09/24 09:34:17;;;;;;;1999.90;999.90;;;18.90;99.90;;;;;;4981603;28;20042;-67
2023/09/24 09:36:43;;;;;;;1999.90;999.90;;;18.90;99.90;;;;;;4976637;28;20053;-67
2023/09/24 09:39:09;;;;;;;1999.90;999.90;;;18.80;99.90;;;;;;4984942;28;20070;-67
2023/09/24 09:41:35;;;;;;;1999.90;999.90;;;18.70;99.90;;;;;;4986851;28;20093;-67
2023/09/24 09:44:13;;;;;;;1999.90;999.90;;;18.70;99.90;;;;;;4984609;28;20050;-67
2023/09/24 09:46:42;;;;;;;1999.90;999.90;;;18.60;99.90;;;;;;4986541;28;20443;-67
2023/09/24 09:49:10;;;;;;;1999.90;999.90;;;18.60;99.90;;;;;;4981219;28;20446;-68
2023/09/24 09:51:48;;;;;;;1999.90;999.90;;;18.70;99.90;;;;;;4986520;28;20047;-68
2023/09/24 09:54:15;;;;;;;1999.90;999.90;;;18.80;99.90;;;;;;4976510;28;20046;-67
2023/09/24 09:56:41;;;;;;;72.35;68.90;;;18.90;99.90;;;;;;4979022;28;20038;-67
2023/09/24 09:59:09;;;;;;;113.40;108.45;;;19.00;99.90;;;;;;4985613;28;20042;-67
2023/09/24 10:01:35;;;;;;;116.85;111.60;;;18.90;99.90;;;;;;4980585;28;20043;-67
2023/09/24 10:04:06;;;;;;;263.20;251.88;;;19.00;99.90;;;;;;4980842;28;20103;-67
2023/09/24 10:06:34;;;;;;;164.65;157.63;;;19.00;99.90;;;;;;4985225;28;20064;-67
2023/09/24 10:09:01;;;;;;;135.13;129.13;;;19.10;99.90;;;;;;4978173;28;20494;-67
2023/09/24 10:11:32;;;;;;;126.38;120.68;;;19.30;99.90;;;;;;4985159;28;20046;-68
2023/09/24 10:14:06;;;;;;;196.93;188.65;;;19.40;99.90;;;;;;4985727;28;20060;-68
2023/09/24 10:16:37;;;;;;;80.38;76.75;;;19.50;99.90;;;;;;4984882;28;20081;-67
2023/09/24 10:19:04;;;;;;;108.88;103.82;;;19.50;99.90;;;;;;4973237;28;20050;-67
2023/09/24 10:21:43;;;;;;;118.38;112.90;;;19.60;99.90;;;;;;4986301;28;20040;-67
2023/09/24 10:24:15;;;;;;;79.93;76.13;;;19.40;99.90;;;;;;4964480;28;20487;-67
2023/09/24 10:26:49;;;;;;;99.65;95.22;;;19.30;99.90;;;;;;4976567;28;20395;-67
2023/09/24 10:29:18;;;;;;;78.85;75.32;;;19.40;99.90;;;;;;4981591;28;20529;-67
2023/09/24 10:32:06;;;;;;;96.68;92.20;;;19.40;99.90;;;;;;4981096;28;20491;-67
2023/09/24 10:34:54;;;;;;;122.22;116.68;;;19.60;99.90;;;;;;4975857;28;20039;-67
2023/09/24 10:37:26;;;;;;;115.03;109.68;;;19.80;99.90;;;;;;4989415;28;20132;-67
2023/09/24 10:40:04;;;;;;;93.72;89.38;;;19.90;99.90;;;;;;4986976;28;20054;-67
2023/09/24 10:42:31;;;;;;;111.22;106.30;;;20.00;99.90;;;;;;4988976;28;20058;-68
2023/09/24 10:45:06;;;;;;;100.72;96.25;;;20.10;99.90;;;;;;4981105;28;20046;-68
2023/09/24 10:47:39;;;;;;;127.68;121.72;;;20.20;99.90;;;;;;4973758;28;20038;-69
2023/09/24 10:50:06;;;;;;;171.27;163.63;;;20.20;99.90;;;;;;5020092;28;20053;-67
2023/09/24 10:53:01;;;;;;;125.50;120.03;;;20.10;99.90;;;;;;4986452;28;20398;-67
2023/09/24 10:55:30;;;;;;;179.02;170.90;;;20.10;99.90;;;;;;4977321;28;20139;-67
2023/09/24 10:58:04;;;;;;;132.02;126.05;;;20.00;99.90;;;;;;4983287;28;20050;-67
2023/09/24 11:00:31;;;;;;;95.93;91.50;;;20.00;99.90;;;;;;5019581;28;20047;-67
2023/09/24 11:03:05;;;;;;;132.27;126.57;;;20.10;99.90;;;;;;4975103;28;20061;-66
2023/09/24 11:05:40;;;;;;;203.32;194.52;;;20.10;99.90;;;;;;4981715;28;20113;-68
2023/09/24 11:08:06;;;;;;;106.95;102.35;;;20.10;99.90;;;;;;5003955;28;20538;-67
2023/09/24 11:10:31;;;;;;;152.40;145.88;;;20.10;99.90;;;;;;4987803;28;20050;-67
2023/09/24 11:13:02;;;;;;;125.07;119.57;;;20.20;99.90;;;;;;4995035;28;20479;-67
2023/09/24 11:15:38;;;;;;;162.23;155.25;;;20.20;99.90;;;;;;5022331;28;20074;-67
2023/09/24 11:18:05;;;;;;;123.60;118.15;;;20.40;99.90;;;;;;5011185;28;20103;-67
2023/09/24 11:20:32;;;;;;;187.00;179.13;;;20.50;99.90;;;;;;4986509;28;20034;-67
2023/09/24 11:22:59;;;;;;;76.53;72.95;;;20.70;99.90;;;;;;4979172;28;20504;-67
2023/09/24 11:25:26;;;;;;;128.40;122.80;;;20.80;99.90;;;;;;5009907;28;20058;-67
2023/09/24 11:28:02;;;;;;;146.55;140.18;;;20.80;99.90;;;;;;5045983;28;20043;-67
2023/09/24 11:30:49;;;;;;;123.63;118.20;;;20.90;99.90;;;;;;4997053;28;20071;-67
2023/09/24 11:33:22;;;;;;;61.70;58.65;;;21.10;99.90;;;;;;4985132;28;20049;-67
2023/09/24 11:35:50;;;;;;;68.38;65.25;;;21.10;99.90;;;;;;4992318;28;20489;-67
2023/09/24 11:38:26;;;;;;;86.15;82.25;;;20.90;99.90;;;;;;5013642;28;20519;-67
2023/09/24 11:40:52;;;;;;;52.53;50.08;;;20.90;99.90;;;;;;5013027;28;20050;-67
2023/09/24 11:43:17;;;;;;;101.03;96.60;;;20.80;99.90;;;;;;4996090;28;20824;-67
2023/09/24 11:45:53;;;;;;;109.00;104.18;;;20.80;99.90;;;;;;4990416;28;20047;-67
2023/09/24 11:48:26;;;;;;;48.05;45.42;;;20.80;99.90;;;;;;4989437;28;20054;-67
2023/09/24 11:51:02;;;;;;;71.18;67.85;;;20.60;99.90;;;;;;5002708;28;20045;-67
2023/09/24 11:53:28;;;;;;;64.63;61.55;;;20.50;99.90;;;;;;4974360;28;20035;-67
2023/09/24 11:55:58;;;;;;;107.90;103.13;;;20.50;99.90;;;;;;4979007;28;20479;-67
2023/09/24 11:58:28;;;;;;;67.40;64.10;;;20.50;99.90;;;;;;4973128;28;20093;-67
2023/09/24 12:00:57;;;;;;;115.60;110.43;;;20.60;99.90;;;;;;4959985;28;20077;-67
2023/09/24 12:03:23;;;;;;;60.38;57.58;;;20.60;99.90;;;;;;4989728;28;20041;-67
2023/09/24 12:05:50;;;;;;;116.20;111.07;;;20.60;99.90;;;;;;5001405;28;20144;-66